sensor_id;sensor_type;location;lat;lon;timestamp;pressure;altitude;pressure_sealevel;temperature;humidity
75247;BME280;63844;50.042;19.224;2023-02-28T00:00:18;100262.08;;;-0.86;70.79
75247;BME280;63844;50.042;19.224;2023-02-28T00:03:05;100259.80;;;-0.90;71.14
75247;BME280;63844;50.042;19.224;2023-02-28T00:05:32;100261.71;;;-0.93;70.91
75247;BME280;63844;50.042;19.224;2023-02-28T00:07:58;100266.58;;;-0.97;71.08
75247;BME280;63844;50.042;19.224;2023-02-28T00:10:28;100268.66;;;-1.01;71.55
75247;BME280;63844;50.042;19.224;2023-02-28T00:13:00;100270.39;;;-1.03;71.28
75247;BME280;63844;50.042;19.224;2023-02-28T00:15:28;100274.04;;;-1.07;70.83
75247;BME280;63844;50.042;19.224;2023-02-28T00:17:54;100276.27;;;-1.12;70.66
75247;BME280;63844;50.042;19.224;2023-02-28T00:20:21;100274.88;;;-1.15;71.55
75247;BME280;63844;50.042;19.224;2023-02-28T00:22:50;100277.14;;;-1.18;72.44
75247;BME280;63844;50.042;19.224;2023-02-28T00:25:20;100279.39;;;-1.22;71.64
75247;BME280;63844;50.042;19.224;2023-02-28T00:27:47;100280.77;;;-1.24;71.44
75247;BME280;63844;50.042;19.224;2023-02-28T00:30:17;100285.10;;;-1.26;71.65
75247;BME280;63844;50.042;19.224;2023-02-28T00:32:45;100291.88;;;-1.27;71.76
75247;BME280;63844;50.042;19.224;2023-02-28T00:35:12;100291.52;;;-1.30;71.37
75247;BME280;63844;50.042;19.224;2023-02-28T00:37:39;100291.34;;;-1.32;70.92
75247;BME280;63844;50.042;19.224;2023-02-28T00:40:06;100292.90;;;-1.34;71.31
75247;BME280;63844;50.042;19.224;2023-02-28T00:42:35;100289.60;;;-1.35;71.03
75247;BME280;63844;50.042;19.224;2023-02-28T00:45:02;100288.02;;;-1.36;71.29
75247;BME280;63844;50.042;19.224;2023-02-28T00:47:31;100289.59;;;-1.38;70.96
75247;BME280;63844;50.042;19.224;2023-02-28T00:49:58;100284.89;;;-1.39;71.56
75247;BME280;63844;50.042;19.224;2023-02-28T00:52:25;100292.70;;;-1.40;71.15
75247;BME280;63844;50.042;19.224;2023-02-28T00:54:52;100291.84;;;-1.41;71.18
75247;BME280;63844;50.042;19.224;2023-02-28T00:57:18;100288.70;;;-1.41;70.95
75247;BME280;63844;50.042;19.224;2023-02-28T00:59:45;100287.32;;;-1.41;70.90
75247;BME280;63844;50.042;19.224;2023-02-28T01:02:11;100284.20;;;-1.41;70.50
75247;BME280;63844;50.042;19.224;2023-02-28T01:04:38;100286.11;;;-1.40;70.26
75247;BME280;63844;50.042;19.224;2023-02-28T01:07:05;100282.29;;;-1.41;70.31
75247;BME280;63844;50.042;19.224;2023-02-28T01:09:31;100279.34;;;-1.41;69.96
75247;BME280;63844;50.042;19.224;2023-02-28T01:11:58;100282.98;;;-1.40;70.09
75247;BME280;63844;50.042;19.224;2023-02-28T01:14:24;100277.95;;;-1.40;70.12
75247;BME280;63844;50.042;19.224;2023-02-28T01:16:51;100276.90;;;-1.41;69.53
75247;BME280;63844;50.042;19.224;2023-02-28T01:19:18;100274.46;;;-1.42;69.76
75247;BME280;63844;50.042;19.224;2023-02-28T01:21:44;100277.94;;;-1.43;69.93
75247;BME280;63844;50.042;19.224;2023-02-28T01:24:11;100278.45;;;-1.46;70.03
75247;BME280;63844;50.042;19.224;2023-02-28T01:26:37;100272.19;;;-1.50;69.90
75247;BME280;63844;50.042;19.224;2023-02-28T01:29:04;100272.52;;;-1.52;69.80
75247;BME280;63844;50.042;19.224;2023-02-28T01:31:30;100270.95;;;-1.54;69.76
75247;BME280;63844;50.042;19.224;2023-02-28T01:33:57;100272.84;;;-1.58;69.79
75247;BME280;63844;50.042;19.224;2023-02-28T01:36:24;100267.98;;;-1.62;69.90
75247;BME280;63844;50.042;19.224;2023-02-28T01:38:51;100264.31;;;-1.66;69.93
75247;BME280;63844;50.042;19.224;2023-02-28T01:41:24;100262.73;;;-1.70;69.99
75247;BME280;63844;50.042;19.224;2023-02-28T01:46:34;100258.69;;;-1.82;70.76
75247;BME280;63844;50.042;19.224;2023-02-28T01:49:14;100259.00;;;-1.87;71.09
75247;BME280;63844;50.042;19.224;2023-02-28T01:51:46;100262.11;;;-1.92;71.32
75247;BME280;63844;50.042;19.224;2023-02-28T01:54:30;100255.84;;;-1.97;70.99
75247;BME280;63844;50.042;19.224;2023-02-28T01:57:02;100259.97;;;-2.03;70.75
75247;BME280;63844;50.042;19.224;2023-02-28T01:59:35;100258.90;;;-2.10;71.06
75247;BME280;63844;50.042;19.224;2023-02-28T02:02:04;100264.23;;;-2.17;72.42
75247;BME280;63844;50.042;19.224;2023-02-28T02:04:37;100264.03;;;-2.20;72.83
75247;BME280;63844;50.042;19.224;2023-02-28T02:07:05;100263.84;;;-2.24;71.99
75247;BME280;63844;50.042;19.224;2023-02-28T02:09:31;100268.33;;;-2.28;71.58
75247;BME280;63844;50.042;19.224;2023-02-28T02:11:59;100267.95;;;-2.31;73.20
75247;BME280;63844;50.042;19.224;2023-02-28T02:14:35;100267.08;;;-2.34;72.90
75247;BME280;63844;50.042;19.224;2023-02-28T02:17:14;100266.37;;;-2.35;72.05
75247;BME280;63844;50.042;19.224;2023-02-28T02:28:06;100255.02;;;-2.45;72.08
75247;BME280;63844;50.042;19.224;2023-02-28T02:33:28;100259.16;;;-2.50;72.14
75247;BME280;63844;50.042;19.224;2023-02-28T02:36:02;100261.06;;;-2.51;72.48
75247;BME280;63844;50.042;19.224;2023-02-28T02:38:48;100260.18;;;-2.53;73.01
75247;BME280;63844;50.042;19.224;2023-02-28T02:41:23;100255.14;;;-2.54;71.64
75247;BME280;63844;50.042;19.224;2023-02-28T02:44:11;100257.23;;;-2.55;72.81
75247;BME280;63844;50.042;19.224;2023-02-28T02:46:44;100257.92;;;-2.54;73.26
75247;BME280;63844;50.042;19.224;2023-02-28T02:49:19;100256.37;;;-2.52;72.18
75247;BME280;63844;50.042;19.224;2023-02-28T02:51:48;100253.08;;;-2.52;72.38
75247;BME280;63844;50.042;19.224;2023-02-28T02:54:28;100254.13;;;-2.51;72.45
75247;BME280;63844;50.042;19.224;2023-02-28T02:57:00;100257.42;;;-2.52;72.77
75247;BME280;63844;50.042;19.224;2023-02-28T02:59:30;100259.33;;;-2.51;72.66
75247;BME280;63844;50.042;19.224;2023-02-28T03:01:59;100259.65;;;-2.52;71.98
75247;BME280;63844;50.042;19.224;2023-02-28T03:04:32;100260.17;;;-2.53;72.51
75247;BME280;63844;50.042;19.224;2023-02-28T03:07:00;100258.10;;;-2.52;71.90
75247;BME280;63844;50.042;19.224;2023-02-28T03:09:27;100262.79;;;-2.52;72.16
75247;BME280;63844;50.042;19.224;2023-02-28T03:11:55;100265.55;;;-2.54;71.86
75247;BME280;63844;50.042;19.224;2023-02-28T03:19:31;100259.78;;;-2.59;74.00
75247;BME280;63844;50.042;19.224;2023-02-28T03:22:14;100257.16;;;-2.63;73.66
75247;BME280;63844;50.042;19.224;2023-02-28T03:24:58;100255.05;;;-2.67;73.19
75247;BME280;63844;50.042;19.224;2023-02-28T03:27:48;100258.64;;;-2.72;74.36
75247;BME280;63844;50.042;19.224;2023-02-28T03:30:25;100264.86;;;-2.74;74.53
75247;BME280;63844;50.042;19.224;2023-02-28T03:32:58;100266.57;;;-2.77;74.76
75247;BME280;63844;50.042;19.224;2023-02-28T03:35:31;100260.83;;;-2.81;73.29
75247;BME280;63844;50.042;19.224;2023-02-28T03:38:06;100263.55;;;-2.84;74.92
75247;BME280;63844;50.042;19.224;2023-02-28T03:40:34;100267.69;;;-2.88;75.15
75247;BME280;63844;50.042;19.224;2023-02-28T03:43:09;100274.23;;;-2.92;75.26
75247;BME280;63844;50.042;19.224;2023-02-28T03:45:38;100274.23;;;-2.93;74.47
75247;BME280;63844;50.042;19.224;2023-02-28T03:48:13;100275.58;;;-2.97;73.26
75247;BME280;63844;50.042;19.224;2023-02-28T03:50:48;100275.89;;;-3.01;75.32
75247;BME280;63844;50.042;19.224;2023-02-28T03:53:20;100275.84;;;-3.05;75.31
75247;BME280;63844;50.042;19.224;2023-02-28T03:55:51;100279.11;;;-3.07;75.40
75247;BME280;63844;50.042;19.224;2023-02-28T03:58:44;100282.72;;;-3.10;75.32
75247;BME280;63844;50.042;19.224;2023-02-28T04:01:38;100282.00;;;-3.13;74.28
75247;BME280;63844;50.042;19.224;2023-02-28T04:04:08;100286.11;;;-3.17;73.76
75247;BME280;63844;50.042;19.224;2023-02-28T04:06:36;100288.67;;;-3.21;73.78
75247;BME280;63844;50.042;19.224;2023-02-28T04:09:04;100293.13;;;-3.25;74.89
75247;BME280;63844;50.042;19.224;2023-02-28T04:11:41;100297.59;;;-3.29;76.47
75247;BME280;63844;50.042;19.224;2023-02-28T04:14:09;100296.33;;;-3.32;76.84
75247;BME280;63844;50.042;19.224;2023-02-28T04:16:38;100296.66;;;-3.34;76.34
75247;BME280;63844;50.042;19.224;2023-02-28T04:19:07;100295.95;;;-3.35;76.26
75247;BME280;63844;50.042;19.224;2023-02-28T04:21:36;100305.63;;;-3.37;75.99
75247;BME280;63844;50.042;19.224;2023-02-28T04:24:04;100304.05;;;-3.38;74.55
75247;BME280;63844;50.042;19.224;2023-02-28T04:26:36;100303.02;;;-3.38;75.91
75247;BME280;63844;50.042;19.224;2023-02-28T04:29:04;100305.09;;;-3.39;75.67
75247;BME280;63844;50.042;19.224;2023-02-28T04:31:31;100306.63;;;-3.41;73.80
75247;BME280;63844;50.042;19.224;2023-02-28T04:33:58;100302.97;;;-3.43;74.11
75247;BME280;63844;50.042;19.224;2023-02-28T04:36:25;100304.34;;;-3.45;74.18
75247;BME280;63844;50.042;19.224;2023-02-28T04:38:52;100309.31;;;-3.48;74.23
75247;BME280;63844;50.042;19.224;2023-02-28T04:41:19;100307.56;;;-3.50;74.33
75247;BME280;63844;50.042;19.224;2023-02-28T04:43:46;100309.26;;;-3.53;75.42
75247;BME280;63844;50.042;19.224;2023-02-28T04:46:13;100309.91;;;-3.55;74.57
75247;BME280;63844;50.042;19.224;2023-02-28T04:48:40;100305.02;;;-3.60;75.18
75247;BME280;63844;50.042;19.224;2023-02-28T04:51:10;100308.27;;;-3.63;77.26
75247;BME280;63844;50.042;19.224;2023-02-28T04:53:38;100307.19;;;-3.66;77.63
75247;BME280;63844;50.042;19.224;2023-02-28T04:56:06;100309.04;;;-3.70;75.60
75247;BME280;63844;50.042;19.224;2023-02-28T04:58:34;100309.00;;;-3.74;77.09
75247;BME280;63844;50.042;19.224;2023-02-28T05:01:05;100304.48;;;-3.75;77.11
75247;BME280;63844;50.042;19.224;2023-02-28T05:03:39;100309.96;;;-3.79;78.37
75247;BME280;63844;50.042;19.224;2023-02-28T05:06:10;100314.27;;;-3.80;77.63
75247;BME280;63844;50.042;19.224;2023-02-28T05:08:37;100311.31;;;-3.81;75.83
75247;BME280;63844;50.042;19.224;2023-02-28T05:11:07;100314.05;;;-3.84;75.57
75247;BME280;63844;50.042;19.224;2023-02-28T05:13:34;100316.09;;;-3.87;77.12
75247;BME280;63844;50.042;19.224;2023-02-28T05:16:02;100314.33;;;-3.89;77.13
75247;BME280;63844;50.042;19.224;2023-02-28T05:18:28;100318.09;;;-3.92;76.55
75247;BME280;63844;50.042;19.224;2023-02-28T05:20:55;100318.23;;;-3.94;78.26
75247;BME280;63844;50.042;19.224;2023-02-28T05:23:22;100319.25;;;-3.95;77.89
75247;BME280;63844;50.042;19.224;2023-02-28T05:25:49;100316.45;;;-3.98;76.11
75247;BME280;63844;50.042;19.224;2023-02-28T05:28:15;100320.77;;;-3.98;77.82
75247;BME280;63844;50.042;19.224;2023-02-28T05:30:42;100325.23;;;-4.00;78.87
75247;BME280;63844;50.042;19.224;2023-02-28T05:33:10;100327.98;;;-4.02;77.36
75247;BME280;63844;50.042;19.224;2023-02-28T05:35:40;100329.67;;;-4.04;77.40
75247;BME280;63844;50.042;19.224;2023-02-28T05:38:07;100332.09;;;-4.05;77.23
75247;BME280;63844;50.042;19.224;2023-02-28T05:40:34;100342.48;;;-4.04;78.12
75247;BME280;63844;50.042;19.224;2023-02-28T05:43:01;100340.90;;;-4.05;76.72
75247;BME280;63844;50.042;19.224;2023-02-28T05:45:27;100346.40;;;-4.07;75.97
75247;BME280;63844;50.042;19.224;2023-02-28T05:47:55;100347.41;;;-4.08;75.79
75247;BME280;63844;50.042;19.224;2023-02-28T05:50:21;100346.55;;;-4.09;75.31
75247;BME280;63844;50.042;19.224;2023-02-28T05:52:51;100350.02;;;-4.08;76.79
75247;BME280;63844;50.042;19.224;2023-02-28T05:55:18;100349.52;;;-4.07;75.72
75247;BME280;63844;50.042;19.224;2023-02-28T05:57:45;100355.23;;;-4.07;76.61
75247;BME280;63844;50.042;19.224;2023-02-28T06:00:12;100360.95;;;-4.05;76.43
75247;BME280;63844;50.042;19.224;2023-02-28T06:02:41;100358.52;;;-4.06;76.28
75247;BME280;63844;50.042;19.224;2023-02-28T06:05:13;100360.96;;;-4.04;76.65
75247;BME280;63844;50.042;19.224;2023-02-28T06:07:40;100361.85;;;-4.02;78.12
75247;BME280;63844;50.042;19.224;2023-02-28T06:10:07;100366.20;;;-4.01;76.25
75247;BME280;63844;50.042;19.224;2023-02-28T06:12:34;100365.33;;;-4.01;76.54
75247;BME280;63844;50.042;19.224;2023-02-28T06:15:01;100365.71;;;-3.99;77.69
75247;BME280;63844;50.042;19.224;2023-02-28T06:17:27;100370.75;;;-3.98;76.37
75247;BME280;63844;50.042;19.224;2023-02-28T06:19:54;100373.18;;;-3.97;76.04
75247;BME280;63844;50.042;19.224;2023-02-28T06:22:21;100373.55;;;-3.95;75.37
75247;BME280;63844;50.042;19.224;2023-02-28T06:24:47;100375.66;;;-3.94;75.36
75247;BME280;63844;50.042;19.224;2023-02-28T06:27:14;100374.64;;;-3.91;76.12
75247;BME280;63844;50.042;19.224;2023-02-28T06:29:40;100378.66;;;-3.89;75.35
75247;BME280;63844;50.042;19.224;2023-02-28T06:32:07;100381.27;;;-3.88;76.00
75247;BME280;63844;50.042;19.224;2023-02-28T06:34:33;100383.06;;;-3.84;77.02
75247;BME280;63844;50.042;19.224;2023-02-28T06:37:00;100383.80;;;-3.81;76.64
75247;BME280;63844;50.042;19.224;2023-02-28T06:39:29;100384.52;;;-3.79;75.93
75247;BME280;63844;50.042;19.224;2023-02-28T06:41:56;100391.13;;;-3.77;75.59
75247;BME280;63844;50.042;19.224;2023-02-28T06:44:24;100386.67;;;-3.74;76.29
75247;BME280;63844;50.042;19.224;2023-02-28T06:46:50;100386.55;;;-3.69;76.29
75247;BME280;63844;50.042;19.224;2023-02-28T06:49:17;100387.63;;;-3.66;77.08
75247;BME280;63844;50.042;19.224;2023-02-28T06:51:44;100392.02;;;-3.62;76.45
75247;BME280;63844;50.042;19.224;2023-02-28T06:54:12;100396.19;;;-3.60;76.19
75247;BME280;63844;50.042;19.224;2023-02-28T06:56:38;100398.14;;;-3.57;76.84
75247;BME280;63844;50.042;19.224;2023-02-28T06:59:05;100395.23;;;-3.54;76.36
75247;BME280;63844;50.042;19.224;2023-02-28T07:01:32;100393.02;;;-3.51;76.53
75247;BME280;63844;50.042;19.224;2023-02-28T07:03:59;100400.35;;;-3.48;76.67
75247;BME280;63844;50.042;19.224;2023-02-28T07:06:27;100405.75;;;-3.45;76.36
75247;BME280;63844;50.042;19.224;2023-02-28T07:08:54;100406.85;;;-3.41;75.62
75247;BME280;63844;50.042;19.224;2023-02-28T07:11:23;100404.80;;;-3.38;75.43
75247;BME280;63844;50.042;19.224;2023-02-28T07:13:52;100403.27;;;-3.34;75.54
75247;BME280;63844;50.042;19.224;2023-02-28T07:16:19;100409.90;;;-3.31;75.21
75247;BME280;63844;50.042;19.224;2023-02-28T07:18:46;100410.27;;;-3.29;75.75
75247;BME280;63844;50.042;19.224;2023-02-28T07:21:14;100411.55;;;-3.25;75.69
75247;BME280;63844;50.042;19.224;2023-02-28T07:23:41;100413.02;;;-3.18;75.78
75247;BME280;63844;50.042;19.224;2023-02-28T07:26:13;100414.48;;;-3.11;75.37
75247;BME280;63844;50.042;19.224;2023-02-28T07:28:42;100414.73;;;-3.05;75.17
75247;BME280;63844;50.042;19.224;2023-02-28T07:31:09;100416.90;;;-2.98;75.58
75247;BME280;63844;50.042;19.224;2023-02-28T07:33:37;100416.13;;;-2.90;76.16
75247;BME280;63844;50.042;19.224;2023-02-28T07:36:07;100417.23;;;-2.83;75.96
75247;BME280;63844;50.042;19.224;2023-02-28T07:38:35;100417.33;;;-2.75;75.67
75247;BME280;63844;50.042;19.224;2023-02-28T07:41:03;100419.15;;;-2.66;75.36
75247;BME280;63844;50.042;19.224;2023-02-28T07:43:32;100416.29;;;-2.58;75.35
75247;BME280;63844;50.042;19.224;2023-02-28T07:46:04;100417.42;;;-2.49;75.37
75247;BME280;63844;50.042;19.224;2023-02-28T07:48:31;100416.11;;;-2.40;75.07
75247;BME280;63844;50.042;19.224;2023-02-28T07:50:59;100414.15;;;-2.28;74.82
75247;BME280;63844;50.042;19.224;2023-02-28T07:53:27;100411.29;;;-2.17;74.43
75247;BME280;63844;50.042;19.224;2023-02-28T07:55:57;100414.34;;;-2.06;74.05
75247;BME280;63844;50.042;19.224;2023-02-28T07:58:26;100414.63;;;-1.90;73.67
75247;BME280;63844;50.042;19.224;2023-02-28T08:00:53;100411.77;;;-1.78;73.50
75247;BME280;63844;50.042;19.224;2023-02-28T08:03:21;100411.85;;;-1.66;73.38
75247;BME280;63844;50.042;19.224;2023-02-28T08:05:49;100410.37;;;-1.52;73.17
75247;BME280;63844;50.042;19.224;2023-02-28T08:08:16;100408.72;;;-1.35;73.25
75247;BME280;63844;50.042;19.224;2023-02-28T08:10:43;100406.19;;;-1.20;72.82
75247;BME280;63844;50.042;19.224;2023-02-28T08:13:10;100404.87;;;-1.04;71.99
75247;BME280;63844;50.042;19.224;2023-02-28T08:15:36;100408.77;;;-0.85;71.90
75247;BME280;63844;50.042;19.224;2023-02-28T08:18:03;100405.50;;;-0.70;71.70
75247;BME280;63844;50.042;19.224;2023-02-28T08:20:29;100407.25;;;-0.65;69.88
75247;BME280;63844;50.042;19.224;2023-02-28T08:22:57;100405.36;;;-0.52;68.96
75247;BME280;63844;50.042;19.224;2023-02-28T08:25:23;100407.13;;;-0.37;68.23
75247;BME280;63844;50.042;19.224;2023-02-28T08:27:51;100405.40;;;-0.18;68.30
75247;BME280;63844;50.042;19.224;2023-02-28T08:30:18;100406.44;;;-0.01;69.24
75247;BME280;63844;50.042;19.224;2023-02-28T08:32:45;100407.83;;;0.11;68.80
75247;BME280;63844;50.042;19.224;2023-02-28T08:35:12;100410.59;;;0.23;67.49
75247;BME280;63844;50.042;19.224;2023-02-28T08:37:38;100405.71;;;0.37;66.68
75247;BME280;63844;50.042;19.224;2023-02-28T08:40:05;100405.18;;;0.40;65.36
75247;BME280;63844;50.042;19.224;2023-02-28T08:42:32;100404.46;;;0.46;66.15
75247;BME280;63844;50.042;19.224;2023-02-28T08:44:59;100406.54;;;0.54;66.16
75247;BME280;63844;50.042;19.224;2023-02-28T08:47:25;100401.98;;;0.62;64.69
75247;BME280;63844;50.042;19.224;2023-02-28T08:49:52;100400.36;;;0.80;64.14
75247;BME280;63844;50.042;19.224;2023-02-28T08:52:18;100399.09;;;0.96;63.88
75247;BME280;63844;50.042;19.224;2023-02-28T08:54:46;100392.77;;;1.04;63.59
75247;BME280;63844;50.042;19.224;2023-02-28T08:57:13;100396.73;;;1.11;62.93
75247;BME280;63844;50.042;19.224;2023-02-28T08:59:40;100400.40;;;1.13;62.96
75247;BME280;63844;50.042;19.224;2023-02-28T09:02:08;100399.04;;;1.05;60.91
75247;BME280;63844;50.042;19.224;2023-02-28T09:04:36;100397.81;;;1.06;61.08
75247;BME280;63844;50.042;19.224;2023-02-28T09:07:02;100400.92;;;1.14;59.76
75247;BME280;63844;50.042;19.224;2023-02-28T09:09:29;100397.35;;;1.28;60.09
75247;BME280;63844;50.042;19.224;2023-02-28T09:11:56;100398.84;;;1.45;61.27
75247;BME280;63844;50.042;19.224;2023-02-28T09:14:23;100395.96;;;1.54;60.22
75247;BME280;63844;50.042;19.224;2023-02-28T09:16:49;100394.50;;;1.64;60.32
75247;BME280;63844;50.042;19.224;2023-02-28T09:19:16;100395.35;;;1.69;59.68
75247;BME280;63844;50.042;19.224;2023-02-28T09:21:42;100400.71;;;1.76;58.59
75247;BME280;63844;50.042;19.224;2023-02-28T09:24:09;100400.60;;;1.90;58.15
75247;BME280;63844;50.042;19.224;2023-02-28T09:26:38;100394.30;;;1.90;57.28
75247;BME280;63844;50.042;19.224;2023-02-28T09:29:04;100395.70;;;1.90;58.65
75247;BME280;63844;50.042;19.224;2023-02-28T09:31:31;100393.15;;;1.82;56.96
75247;BME280;63844;50.042;19.224;2023-02-28T09:33:57;100396.50;;;1.78;57.79
75247;BME280;63844;50.042;19.224;2023-02-28T09:36:26;100391.19;;;1.65;56.76
75247;BME280;63844;50.042;19.224;2023-02-28T09:38:54;100391.31;;;1.71;57.92
75247;BME280;63844;50.042;19.224;2023-02-28T09:41:25;100392.38;;;1.68;57.52
75247;BME280;63844;50.042;19.224;2023-02-28T09:43:59;100394.60;;;1.51;56.39
75247;BME280;63844;50.042;19.224;2023-02-28T09:46:34;100395.27;;;1.54;58.02
75247;BME280;63844;50.042;19.224;2023-02-28T09:49:12;100390.98;;;1.45;57.47
75247;BME280;63844;50.042;19.224;2023-02-28T09:51:47;100392.35;;;1.47;59.12
75247;BME280;63844;50.042;19.224;2023-02-28T09:54:22;100390.26;;;1.48;59.23
75247;BME280;63844;50.042;19.224;2023-02-28T09:56:53;100400.23;;;1.42;59.23
75247;BME280;63844;50.042;19.224;2023-02-28T10:05:18;100400.05;;;1.43;59.61
75247;BME280;63844;50.042;19.224;2023-02-28T10:10:43;100400.95;;;1.42;58.80
75247;BME280;63844;50.042;19.224;2023-02-28T10:15:51;100398.44;;;1.77;59.89
75247;BME280;63844;50.042;19.224;2023-02-28T10:18:24;100402.85;;;1.91;59.31
75247;BME280;63844;50.042;19.224;2023-02-28T10:20:53;100399.61;;;2.04;58.84
75247;BME280;63844;50.042;19.224;2023-02-28T10:23:32;100398.50;;;2.11;57.94
75247;BME280;63844;50.042;19.224;2023-02-28T10:26:11;100397.84;;;2.25;59.14
75247;BME280;63844;50.042;19.224;2023-02-28T10:28:39;100395.15;;;2.34;59.21
75247;BME280;63844;50.042;19.224;2023-02-28T10:31:11;100395.48;;;2.35;58.82
75247;BME280;63844;50.042;19.224;2023-02-28T10:33:40;100391.59;;;2.39;58.18
75247;BME280;63844;50.042;19.224;2023-02-28T10:36:13;100388.21;;;2.44;57.69
75247;BME280;63844;50.042;19.224;2023-02-28T10:38:40;100381.50;;;2.35;57.84
75247;BME280;63844;50.042;19.224;2023-02-28T10:41:11;100384.55;;;2.27;58.07
75247;BME280;63844;50.042;19.224;2023-02-28T10:43:40;100381.05;;;2.27;58.32
75247;BME280;63844;50.042;19.224;2023-02-28T10:46:12;100380.63;;;2.17;56.98
75247;BME280;63844;50.042;19.224;2023-02-28T10:48:50;100381.67;;;2.18;57.75
75247;BME280;63844;50.042;19.224;2023-02-28T10:51:23;100380.80;;;2.17;58.08
75247;BME280;63844;50.042;19.224;2023-02-28T10:53:51;100375.38;;;2.35;58.44
75247;BME280;63844;50.042;19.224;2023-02-28T10:56:23;100371.70;;;2.54;57.58
75247;BME280;63844;50.042;19.224;2023-02-28T10:59:02;100367.87;;;2.67;56.66
75247;BME280;63844;50.042;19.224;2023-02-28T11:03:56;100360.02;;;2.81;56.61
75247;BME280;63844;50.042;19.224;2023-02-28T11:06:30;100358.95;;;2.82;55.90
75247;BME280;63844;50.042;19.224;2023-02-28T11:09:01;100359.48;;;2.82;54.96
75247;BME280;63844;50.042;19.224;2023-02-28T11:11:30;100357.48;;;2.75;54.60
75247;BME280;63844;50.042;19.224;2023-02-28T11:14:18;100356.44;;;2.73;55.83
75247;BME280;63844;50.042;19.224;2023-02-28T11:16:46;100350.77;;;2.78;56.15
75247;BME280;63844;50.042;19.224;2023-02-28T11:19:22;100346.14;;;2.72;55.47
75247;BME280;63844;50.042;19.224;2023-02-28T11:21:56;100345.71;;;2.78;55.42
75247;BME280;63844;50.042;19.224;2023-02-28T11:24:30;100339.81;;;2.74;55.15
75247;BME280;63844;50.042;19.224;2023-02-28T11:26:58;100335.11;;;2.74;54.75
75247;BME280;63844;50.042;19.224;2023-02-28T11:29:28;100328.31;;;2.72;54.46
75247;BME280;63844;50.042;19.224;2023-02-28T11:32:13;100322.31;;;2.76;55.44
75247;BME280;63844;50.042;19.224;2023-02-28T11:34:43;100322.23;;;2.82;54.98
75247;BME280;63844;50.042;19.224;2023-02-28T11:37:16;100317.05;;;2.78;54.34
75247;BME280;63844;50.042;19.224;2023-02-28T11:39:45;100314.23;;;2.79;54.73
75247;BME280;63844;50.042;19.224;2023-02-28T11:42:16;100312.25;;;2.69;52.92
75247;BME280;63844;50.042;19.224;2023-02-28T11:53:19;100302.01;;;3.04;53.78
75247;BME280;63844;50.042;19.224;2023-02-28T11:55:53;100302.57;;;3.14;53.74
75247;BME280;63844;50.042;19.224;2023-02-28T11:58:34;100296.72;;;3.06;51.72
75247;BME280;63844;50.042;19.224;2023-02-28T12:01:24;100295.71;;;3.16;52.88
75247;BME280;63844;50.042;19.224;2023-02-28T12:09:51;100294.56;;;3.66;51.63
75247;BME280;63844;50.042;19.224;2023-02-28T12:12:48;100298.27;;;3.84;52.46
75247;BME280;63844;50.042;19.224;2023-02-28T12:15:37;100291.18;;;3.99;51.90
75247;BME280;63844;50.042;19.224;2023-02-28T12:18:19;100290.65;;;4.00;51.20
75247;BME280;63844;50.042;19.224;2023-02-28T12:21:18;100289.25;;;3.90;50.55
75247;BME280;63844;50.042;19.224;2023-02-28T12:26:46;100287.82;;;3.92;50.24
75247;BME280;63844;50.042;19.224;2023-02-28T12:29:32;100281.77;;;4.06;50.28
75247;BME280;63844;50.042;19.224;2023-02-28T12:32:05;100280.66;;;4.18;50.49
75247;BME280;63844;50.042;19.224;2023-02-28T12:35:03;100282.54;;;4.30;50.83
75247;BME280;63844;50.042;19.224;2023-02-28T12:37:37;100282.05;;;4.37;51.29
75247;BME280;63844;50.042;19.224;2023-02-28T12:40:16;100278.43;;;4.51;50.07
75247;BME280;63844;50.042;19.224;2023-02-28T12:42:49;100275.72;;;4.55;49.04
75247;BME280;63844;50.042;19.224;2023-02-28T12:45:40;100277.86;;;4.45;49.29
75247;BME280;63844;50.042;19.224;2023-02-28T12:48:13;100279.66;;;4.67;48.99
75247;BME280;63844;50.042;19.224;2023-02-28T12:50:41;100278.33;;;4.81;48.41
75247;BME280;63844;50.042;19.224;2023-02-28T12:53:27;100280.77;;;4.89;48.64
75247;BME280;63844;50.042;19.224;2023-02-28T12:56:13;100282.48;;;5.15;49.17
75247;BME280;63844;50.042;19.224;2023-02-28T12:58:46;100275.23;;;5.32;48.26
75247;BME280;63844;50.042;19.224;2023-02-28T13:07:46;100259.43;;;5.95;47.44
75247;BME280;63844;50.042;19.224;2023-02-28T13:10:19;100258.69;;;6.04;46.91
75247;BME280;63844;50.042;19.224;2023-02-28T13:12:50;100256.08;;;5.96;47.18
75247;BME280;63844;50.042;19.224;2023-02-28T13:15:35;100256.50;;;5.93;47.81
75247;BME280;63844;50.042;19.224;2023-02-28T13:18:29;100250.88;;;6.06;46.97
75247;BME280;63844;50.042;19.224;2023-02-28T13:20:57;100248.36;;;6.15;46.04
75247;BME280;63844;50.042;19.224;2023-02-28T13:23:37;100251.29;;;6.11;45.88
75247;BME280;63844;50.042;19.224;2023-02-28T13:26:05;100250.29;;;6.28;46.77
75247;BME280;63844;50.042;19.224;2023-02-28T13:31:17;100252.44;;;6.33;46.75
75247;BME280;63844;50.042;19.224;2023-02-28T13:38:46;100245.11;;;6.48;45.29
75247;BME280;63844;50.042;19.224;2023-02-28T13:51:51;100234.34;;;6.56;45.05
75247;BME280;63844;50.042;19.224;2023-02-28T14:05:39;100218.54;;;6.90;43.88
75247;BME280;63844;50.042;19.224;2023-02-28T14:08:19;100214.61;;;6.80;44.29
75247;BME280;63844;50.042;19.224;2023-02-28T14:10:50;100213.79;;;6.72;44.96
75247;BME280;63844;50.042;19.224;2023-02-28T14:13:38;100212.19;;;6.56;45.12
75247;BME280;63844;50.042;19.224;2023-02-28T14:16:13;100214.44;;;6.57;45.13
75247;BME280;63844;50.042;19.224;2023-02-28T14:18:47;100213.25;;;6.50;44.53
75247;BME280;63844;50.042;19.224;2023-02-28T14:21:22;100207.55;;;6.52;44.44
75247;BME280;63844;50.042;19.224;2023-02-28T14:27:13;100207.91;;;6.81;43.27
75247;BME280;63844;50.042;19.224;2023-02-28T14:32:40;100201.45;;;7.08;44.36